Seaforth, Minnesota
Current Conditions -  °F | °C
As of 5:53 AM on Monday 24 Nov 2014 (Local Time) from KRWF Reporting Station
Light Snow Light Snow  
Wind Chill:   Ceiling: 1700
Heat Index: 19°   Visibility: 10mi
Dew Point: 12°   Wind: 21mph
Humidity: 74%   Direction: 320°NW
Pressure: 29.48"   Gusts: 32mph
Location:  44.48°N, 95.33°W
Report Text: KRWF 241153Z AUTO 32018G28KT 10SM -SN OVC017 M07/M11 A2948 RMK AO2 PK WND 32033/1142 SLP994 P0000 60000 70013 T10721111 11033 21072 53009
Loading
Personal Weather Stations






























Interactive Weather Map New forecast layout! Learn more

10-Day Weather Forecast

Advertisements
Track Severe Weather on mobile